Time;durP1;ratioP1;P1;durP2;ratioP2;P2;SDS_P1;SDS_P2;PMS_P1;PMS_P2;Temp;Humidity;BMP_temperature;BMP_pressure;BME280_temperature;BME280_humidity;BME280_pressure;Samples;Min_cycle;Max_cycle;Signal;HPM_P1;HPM_P2
2021/04/29 00:00:21;;;;;;;10.20;6.72;;;13.00;61.10;;;;;;5027974;28;20037;-43
2021/04/29 00:02:47;;;;;;;11.60;6.20;;;12.90;61.40;;;;;;5026432;28;20383;-45
2021/04/29 00:05:15;;;;;;;8.38;6.10;;;12.90;62.20;;;;;;5026685;28;20154;-45
2021/04/29 00:07:42;;;;;;;12.27;6.80;;;13.00;64.80;;;;;;5027890;28;20036;-45
2021/04/29 00:10:12;;;;;;;10.18;6.93;;;12.90;65.00;;;;;;5027164;28;20079;-45
2021/04/29 00:12:37;;;;;;;9.90;6.70;;;12.90;63.20;;;;;;5028161;28;20026;-45
2021/04/29 00:15:05;;;;;;;11.88;6.85;;;12.90;63.00;;;;;;5028285;28;20033;-47
2021/04/29 00:17:31;;;;;;;12.25;7.20;;;12.80;63.90;;;;;;5027951;28;20336;-45
2021/04/29 00:19:57;;;;;;;11.70;6.45;;;12.80;66.50;;;;;;5028474;28;20109;-46
2021/04/29 00:22:22;;;;;;;9.85;6.75;;;12.80;66.60;;;;;;5028368;28;20109;-45
2021/04/29 00:24:48;;;;;;;9.48;6.15;;;12.80;64.60;;;;;;5026868;28;20037;-45
2021/04/29 00:27:13;;;;;;;9.57;6.13;;;12.80;67.20;;;;;;5011190;28;20030;-46
2021/04/29 00:29:39;;;;;;;7.97;5.75;;;12.80;71.40;;;;;;5006630;28;20033;-46
2021/04/29 00:32:05;;;;;;;10.98;6.00;;;12.80;69.80;;;;;;5008633;28;20034;-44
2021/04/29 00:34:30;;;;;;;9.05;6.95;;;12.70;72.80;;;;;;5012466;28;20060;-44
2021/04/29 00:36:56;;;;;;;9.75;6.55;;;12.70;70.30;;;;;;5028379;28;20054;-45
2021/04/29 00:39:23;;;;;;;9.60;6.50;;;12.70;72.70;;;;;;5027653;28;20037;-45
2021/04/29 00:41:49;;;;;;;7.72;6.13;;;12.70;70.50;;;;;;5027879;28;20523;-45
2021/04/29 00:44:14;;;;;;;14.13;9.13;;;12.70;73.80;;;;;;5028534;28;20064;-46
2021/04/29 00:46:40;;;;;;;9.85;7.18;;;12.70;67.50;;;;;;5027988;28;20047;-45
2021/04/29 00:49:06;;;;;;;12.07;7.78;;;12.70;67.40;;;;;;5027498;28;20030;-46
2021/04/29 00:51:31;;;;;;;9.68;7.97;;;12.70;68.80;;;;;;5026734;28;20079;-46
2021/04/29 00:53:57;;;;;;;10.80;7.60;;;12.60;69.60;;;;;;5028214;28;20064;-46
2021/04/29 00:56:23;;;;;;;9.95;7.00;;;12.70;71.60;;;;;;5027058;28;20029;-47
2021/04/29 00:58:51;;;;;;;9.65;7.28;;;12.70;68.20;;;;;;5026119;28;20033;-45
2021/04/29 01:01:17;;;;;;;10.60;7.55;;;12.70;73.10;;;;;;5028000;28;20026;-45
2021/04/29 01:04:15;;;;;;;12.95;7.95;;;12.70;68.80;;;;;;5028137;28;20523;-45
2021/04/29 01:06:48;;;;;;;11.32;7.82;;;12.70;68.00;;;;;;5026774;28;20030;-45
2021/04/29 01:09:37;;;;;;;11.55;7.20;;;12.70;67.20;;;;;;5027566;28;20032;-45
2021/04/29 01:12:13;;;;;;;11.05;7.65;;;12.70;65.60;;;;;;5027733;28;20021;-45
2021/04/29 01:14:40;;;;;;;13.20;7.97;;;12.70;65.30;;;;;;5027940;28;20022;-45
2021/04/29 01:17:07;;;;;;;10.90;7.80;;;12.70;66.10;;;;;;5027670;28;20318;-45
2021/04/29 01:19:45;;;;;;;12.43;7.47;;;12.70;67.00;;;;;;5027066;28;20072;-46
2021/04/29 01:22:12;;;;;;;15.00;8.35;;;12.70;68.80;;;;;;5027800;28;20025;-43
2021/04/29 01:24:55;;;;;;;13.98;9.13;;;12.70;66.80;;;;;;5031700;28;20060;-45
2021/04/29 01:27:23;;;;;;;10.73;7.78;;;12.70;67.70;;;;;;5029488;28;20151;-46
2021/04/29 01:29:50;;;;;;;13.18;8.13;;;12.70;72.40;;;;;;5031036;28;20021;-46
2021/04/29 01:32:16;;;;;;;10.18;6.85;;;12.60;70.50;;;;;;5029802;28;20030;-44
2021/04/29 01:34:43;;;;;;;10.68;7.25;;;12.70;70.60;;;;;;5030093;28;20033;-45
2021/04/29 01:37:09;;;;;;;12.10;7.45;;;12.70;71.70;;;;;;5031610;28;20045;-45
2021/04/29 01:39:35;;;;;;;11.05;7.50;;;12.60;71.80;;;;;;5030550;28;20423;-45
2021/04/29 01:42:02;;;;;;;9.60;6.93;;;12.60;76.50;;;;;;5030650;28;20048;-44
2021/04/29 01:44:28;;;;;;;10.15;6.80;;;12.50;77.70;;;;;;5026308;28;20557;-45
2021/04/29 01:46:58;;;;;;;12.57;6.95;;;12.50;77.40;;;;;;5011379;28;20403;-45
2021/04/29 01:49:24;;;;;;;9.70;7.20;;;12.50;78.90;;;;;;5009223;28;20030;-45
2021/04/29 01:51:51;;;;;;;12.00;7.78;;;12.40;90.00;;;;;;5011240;28;20026;-45
2021/04/29 01:54:20;;;;;;;9.98;7.35;;;12.30;96.00;;;;;;5022405;28;20108;-44
2021/04/29 01:56:46;;;;;;;12.35;7.32;;;12.10;99.80;;;;;;5030096;28;20533;-45
2021/04/29 01:59:13;;;;;;;12.45;7.95;;;12.10;98.30;;;;;;5030377;28;20060;-45
2021/04/29 02:01:42;;;;;;;12.23;8.75;;;12.00;99.90;;;;;;5030801;28;20121;-45
2021/04/29 02:04:09;;;;;;;11.52;8.23;;;12.00;99.90;;;;;;5030801;28;20021;-46
2021/04/29 02:06:38;;;;;;;10.65;7.80;;;11.80;99.90;;;;;;5030727;28;20040;-43
2021/04/29 02:09:06;;;;;;;12.40;8.88;;;11.70;99.90;;;;;;5030634;28;20233;-45
2021/04/29 02:11:36;;;;;;;11.27;8.43;;;11.60;99.90;;;;;;5030075;28;20505;-44
2021/04/29 02:14:05;;;;;;;11.27;8.80;;;11.50;99.90;;;;;;5030385;28;20029;-44
2021/04/29 02:16:41;;;;;;;11.82;9.75;;;11.40;99.90;;;;;;5030449;28;20278;-45
2021/04/29 02:19:08;;;;;;;13.93;9.90;;;11.40;99.90;;;;;;5030078;28;20043;-44
2021/04/29 02:21:36;;;;;;;13.90;9.57;;;11.30;99.90;;;;;;5030427;28;20048;-48
2021/04/29 02:24:02;;;;;;;13.80;10.60;;;11.20;99.90;;;;;;5028958;28;20486;-45
2021/04/29 02:26:29;;;;;;;16.83;11.30;;;11.20;99.90;;;;;;5020530;28;20022;-46
2021/04/29 02:28:55;;;;;;;19.13;11.10;;;11.10;99.90;;;;;;5010070;28;20510;-44
2021/04/29 02:31:23;;;;;;;16.88;11.23;;;11.00;99.90;;;;;;5010405;28;20041;-48
2021/04/29 02:33:50;;;;;;;15.35;11.35;;;11.10;99.90;;;;;;5009791;28;20040;-45
2021/04/29 02:36:16;;;;;;;17.25;13.05;;;11.00;99.90;;;;;;5026279;28;20061;-45
2021/04/29 02:38:42;;;;;;;18.48;13.07;;;11.00;99.90;;;;;;5029469;28;20076;-45
2021/04/29 02:41:08;;;;;;;21.98;13.77;;;11.00;99.90;;;;;;5030334;28;20037;-46
2021/04/29 02:43:35;;;;;;;19.08;13.02;;;10.90;99.90;;;;;;5029775;28;20026;-44
2021/04/29 02:46:01;;;;;;;21.20;13.52;;;10.90;99.90;;;;;;5030016;28;20030;-45
2021/04/29 02:48:28;;;;;;;21.45;13.68;;;10.90;99.90;;;;;;5029477;28;20450;-45
2021/04/29 02:50:54;;;;;;;21.63;13.60;;;10.90;99.90;;;;;;5030183;28;20061;-47
2021/04/29 02:53:20;;;;;;;22.35;15.02;;;10.80;99.90;;;;;;5029771;28;20314;-44
2021/04/29 02:55:48;;;;;;;23.77;16.38;;;10.70;99.90;;;;;;5028780;28;20491;-47
2021/04/29 02:58:15;;;;;;;26.10;15.63;;;10.60;99.90;;;;;;5028912;28;20030;-48
2021/04/29 03:00:42;;;;;;;20.00;15.27;;;10.50;99.90;;;;;;5029469;28;20522;-46
2021/04/29 03:03:08;;;;;;;19.73;15.88;;;10.50;99.90;;;;;;5029122;28;20029;-44
2021/04/29 03:05:35;;;;;;;24.00;16.65;;;10.50;99.90;;;;;;5029144;28;20495;-46
2021/04/29 03:08:01;;;;;;;23.63;16.70;;;10.50;99.90;;;;;;5029150;28;20044;-46
2021/04/29 03:10:27;;;;;;;27.65;17.63;;;10.30;99.90;;;;;;5029522;28;20422;-46
2021/04/29 03:12:53;;;;;;;26.13;17.88;;;10.30;99.90;;;;;;5029384;28;20049;-46
2021/04/29 03:15:18;;;;;;;24.77;17.10;;;10.40;99.90;;;;;;5029489;28;20104;-46
2021/04/29 03:17:44;;;;;;;26.65;17.88;;;10.30;99.90;;;;;;5028330;28;20068;-44
2021/04/29 03:20:10;;;;;;;23.63;18.15;;;10.30;99.90;;;;;;5029386;28;20106;-45
2021/04/29 03:22:36;;;;;;;26.52;17.92;;;10.20;99.90;;;;;;5029225;28;20025;-45
2021/04/29 03:25:03;;;;;;;24.35;17.63;;;10.20;99.90;;;;;;5029550;28;20032;-45
2021/04/29 03:27:29;;;;;;;27.55;18.88;;;10.20;99.90;;;;;;5022617;28;20035;-45
2021/04/29 03:29:54;;;;;;;28.80;18.67;;;10.00;99.90;;;;;;5029372;28;20437;-46
2021/04/29 03:32:20;;;;;;;25.98;17.15;;;10.00;99.90;;;;;;5028281;28;20029;-46
2021/04/29 03:34:46;;;;;;;31.35;19.67;;;10.00;99.90;;;;;;5029588;28;20026;-46
2021/04/29 03:37:12;;;;;;;30.08;19.02;;;9.90;99.90;;;;;;5027777;28;20033;-45
2021/04/29 03:39:38;;;;;;;24.55;18.33;;;9.90;99.90;;;;;;5028986;28;20357;-45
2021/04/29 03:42:06;;;;;;;27.10;20.15;;;9.80;99.90;;;;;;5028428;28;20365;-45
2021/04/29 03:44:33;;;;;;;26.15;20.10;;;9.80;99.90;;;;;;5028408;28;20026;-45
2021/04/29 03:46:58;;;;;;;29.35;21.40;;;9.80;99.90;;;;;;5027936;28;20071;-46
2021/04/29 03:49:24;;;;;;;30.00;21.05;;;9.80;99.90;;;;;;5027578;28;20033;-47
2021/04/29 03:51:49;;;;;;;29.42;19.35;;;9.80;99.90;;;;;;5028427;28;20021;-46
2021/04/29 03:54:15;;;;;;;29.33;21.13;;;9.80;99.90;;;;;;5028089;28;20116;-45
2021/04/29 03:56:40;;;;;;;32.78;21.27;;;9.80;99.90;;;;;;5026067;28;20029;-44
2021/04/29 03:59:06;;;;;;;27.95;19.75;;;9.80;99.90;;;;;;5026938;28;20071;-45
2021/04/29 04:01:31;;;;;;;28.38;20.70;;;9.70;99.90;;;;;;5027976;28;20601;-45
2021/04/29 04:03:57;;;;;;;31.10;20.67;;;9.70;99.90;;;;;;5027330;28;20035;-45
2021/04/29 04:06:23;;;;;;;29.40;21.73;;;9.60;99.90;;;;;;5028644;28;20119;-46
2021/04/29 04:08:48;;;;;;;34.80;21.20;;;9.60;99.90;;;;;;5027579;28;20041;-48
2021/04/29 04:11:14;;;;;;;30.83;21.08;;;9.50;99.90;;;;;;5027173;28;20025;-47
2021/04/29 04:13:39;;;;;;;32.83;21.45;;;9.60;99.90;;;;;;5028246;28;20146;-48
2021/04/29 04:16:05;;;;;;;30.90;21.90;;;9.50;99.90;;;;;;5027812;28;20041;-47
2021/04/29 04:18:30;;;;;;;30.15;21.70;;;9.50;99.90;;;;;;5027630;28;20052;-47
2021/04/29 04:20:56;;;;;;;32.80;21.42;;;9.50;99.90;;;;;;5028296;28;20033;-46
2021/04/29 04:23:21;;;;;;;35.13;22.65;;;9.50;99.90;;;;;;5028475;28;20041;-46
2021/04/29 04:25:47;;;;;;;34.33;20.83;;;9.50;99.90;;;;;;5028433;28;20602;-47
2021/04/29 04:28:12;;;;;;;29.80;21.05;;;9.50;99.90;;;;;;5027660;28;20109;-47
2021/04/29 04:30:38;;;;;;;32.83;21.98;;;9.50;99.90;;;;;;5028489;28;20487;-46
2021/04/29 04:33:04;;;;;;;31.38;22.10;;;9.50;99.90;;;;;;5027010;28;20083;-46
2021/04/29 04:35:29;;;;;;;32.53;22.75;;;9.50;99.90;;;;;;5028426;28;20045;-49
2021/04/29 04:37:55;;;;;;;32.38;21.20;;;9.40;99.90;;;;;;5027589;28;20125;-46
2021/04/29 04:40:21;;;;;;;31.42;22.13;;;9.40;99.90;;;;;;5027840;28;20061;-46
2021/04/29 04:42:46;;;;;;;31.00;21.40;;;9.40;99.90;;;;;;5028021;28;20026;-46
2021/04/29 04:45:12;;;;;;;33.53;24.02;;;9.30;99.90;;;;;;5028172;28;20471;-46
2021/04/29 04:47:39;;;;;;;36.83;23.67;;;9.30;99.90;;;;;;5029008;28;20109;-47
2021/04/29 04:50:07;;;;;;;31.33;23.92;;;9.30;99.90;;;;;;5031569;28;20030;-47
2021/04/29 04:52:34;;;;;;;35.72;25.33;;;9.20;99.90;;;;;;5043924;28;20048;-47
2021/04/29 04:54:59;;;;;;;33.47;23.98;;;9.20;99.90;;;;;;5028459;28;20079;-49
2021/04/29 04:57:25;;;;;;;33.85;24.73;;;9.10;99.90;;;;;;5025175;28;20045;-47
2021/04/29 04:59:50;;;;;;;36.38;25.95;;;9.10;99.90;;;;;;5029995;28;20053;-47
2021/04/29 05:02:16;;;;;;;34.83;25.98;;;9.10;99.90;;;;;;5031697;28;20472;-47
2021/04/29 05:04:42;;;;;;;35.17;24.85;;;9.10;99.90;;;;;;5031982;28;20036;-47
2021/04/29 05:07:10;;;;;;;38.80;27.50;;;9.10;99.90;;;;;;5030591;28;20387;-48
2021/04/29 05:09:35;;;;;;;33.28;24.13;;;9.10;99.90;;;;;;5029348;28;20064;-47
2021/04/29 05:12:01;;;;;;;36.15;27.67;;;9.10;99.90;;;;;;5031224;28;20029;-47
2021/04/29 05:14:28;;;;;;;38.25;25.77;;;9.20;99.90;;;;;;5032007;28;20364;-46
2021/04/29 05:16:54;;;;;;;35.35;26.08;;;9.20;99.90;;;;;;5031590;28;20547;-46
2021/04/29 05:19:19;;;;;;;43.83;27.20;;;9.20;99.90;;;;;;5030536;28;20116;-47
2021/04/29 05:21:45;;;;;;;38.72;24.95;;;9.30;99.90;;;;;;5031027;28;20100;-47
2021/04/29 05:24:10;;;;;;;36.30;25.98;;;9.20;99.90;;;;;;5031180;28;20029;-46
2021/04/29 05:26:36;;;;;;;35.38;25.63;;;9.30;99.90;;;;;;5030990;28;20041;-47
2021/04/29 05:29:02;;;;;;;35.20;24.23;;;9.30;99.90;;;;;;5029987;28;20115;-49
2021/04/29 05:31:28;;;;;;;34.72;26.10;;;9.30;99.90;;;;;;5030582;28;20102;-48
2021/04/29 05:33:53;;;;;;;34.75;26.08;;;9.30;99.90;;;;;;5027482;28;20523;-47
2021/04/29 05:36:19;;;;;;;40.65;28.92;;;9.40;99.90;;;;;;5030931;28;20023;-47
2021/04/29 05:38:44;;;;;;;38.00;28.10;;;9.40;99.90;;;;;;5030414;28;20021;-47
2021/04/29 05:41:10;;;;;;;42.13;28.35;;;9.30;99.90;;;;;;5029385;28;20060;-47
2021/04/29 05:43:35;;;;;;;37.03;26.15;;;9.30;99.90;;;;;;5032506;28;20551;-47
2021/04/29 05:46:03;;;;;;;40.47;29.20;;;9.40;99.90;;;;;;5036108;28;20026;-46
2021/04/29 05:48:29;;;;;;;37.88;27.52;;;9.40;99.90;;;;;;5030547;28;20041;-47
2021/04/29 05:50:56;;;;;;;38.53;27.42;;;9.40;99.90;;;;;;5030822;28;20025;-48
2021/04/29 05:53:21;;;;;;;37.47;26.65;;;9.30;99.90;;;;;;5031141;28;20079;-48
2021/04/29 05:55:47;;;;;;;41.33;27.73;;;9.40;99.90;;;;;;5030391;28;20100;-47
2021/04/29 05:58:12;;;;;;;39.55;30.40;;;9.40;99.90;;;;;;5029779;28;20037;-49
2021/04/29 06:00:38;;;;;;;39.75;28.48;;;9.40;99.90;;;;;;5030631;28;20530;-47
2021/04/29 06:03:03;;;;;;;36.05;26.25;;;9.40;99.90;;;;;;5030669;28;20037;-47
2021/04/29 06:05:29;;;;;;;36.72;28.27;;;9.40;99.90;;;;;;5030929;28;20037;-47
2021/04/29 06:07:59;;;;;;;42.90;30.92;;;9.40;99.90;;;;;;5030044;28;20091;-46
2021/04/29 06:10:25;;;;;;;43.23;30.80;;;9.40;99.90;;;;;;5030309;28;20080;-48
2021/04/29 06:12:51;;;;;;;36.50;28.50;;;9.50;99.90;;;;;;5030154;28;20029;-48
2021/04/29 06:15:17;;;;;;;40.83;29.25;;;9.50;99.90;;;;;;5030425;28;20611;-48
2021/04/29 06:17:42;;;;;;;39.28;29.00;;;9.50;99.90;;;;;;5030284;28;20025;-47
2021/04/29 06:20:09;;;;;;;49.40;32.78;;;9.40;99.90;;;;;;5030405;28;20449;-48
2021/04/29 06:22:34;;;;;;;43.58;28.67;;;9.50;99.90;;;;;;5025411;28;20030;-48
2021/04/29 06:25:00;;;;;;;45.25;30.50;;;9.40;99.90;;;;;;5010599;28;20376;-49
2021/04/29 06:27:25;;;;;;;37.58;28.30;;;9.50;99.90;;;;;;5024814;28;20128;-48
2021/04/29 06:29:51;;;;;;;42.78;30.40;;;9.40;99.90;;;;;;5030488;28;20040;-49
2021/04/29 06:32:16;;;;;;;44.75;30.55;;;9.40;99.90;;;;;;5032150;28;20037;-49
2021/04/29 06:34:42;;;;;;;57.25;31.98;;;9.40;99.90;;;;;;5030735;28;20039;-47
2021/04/29 06:37:07;;;;;;;40.58;31.48;;;9.40;99.90;;;;;;5030403;28;20025;-48
2021/04/29 06:39:33;;;;;;;42.58;29.60;;;9.40;99.90;;;;;;5029970;28;20042;-47
2021/04/29 06:41:58;;;;;;;39.30;30.48;;;9.40;99.90;;;;;;5045489;28;20083;-47
2021/04/29 06:44:24;;;;;;;41.13;31.40;;;9.40;99.90;;;;;;5046511;28;20100;-47
2021/04/29 06:46:50;;;;;;;43.70;30.42;;;9.40;99.90;;;;;;5032539;28;20517;-46
2021/04/29 06:49:15;;;;;;;42.72;30.25;;;9.40;99.90;;;;;;5029397;28;20035;-48
2021/04/29 06:51:40;;;;;;;42.33;30.67;;;9.50;99.90;;;;;;5029101;28;20048;-48
2021/04/29 06:54:07;;;;;;;41.05;31.23;;;9.60;99.90;;;;;;5029413;28;20032;-50
2021/04/29 06:56:34;;;;;;;41.58;29.23;;;9.60;99.90;;;;;;5030844;28;20025;-49
2021/04/29 06:59:00;;;;;;;45.05;31.27;;;9.60;99.90;;;;;;5029239;28;20022;-47
2021/04/29 07:01:26;;;;;;;41.83;29.83;;;9.70;99.90;;;;;;5034286;28;20091;-48
2021/04/29 07:03:51;;;;;;;42.63;30.98;;;9.60;99.90;;;;;;5033923;28;20568;-50
2021/04/29 07:06:17;;;;;;;38.35;29.60;;;9.60;99.90;;;;;;5030608;28;20080;-46
2021/04/29 07:08:42;;;;;;;36.55;27.25;;;9.70;99.90;;;;;;5030228;28;20075;-48
2021/04/29 07:11:08;;;;;;;38.63;28.90;;;9.70;99.90;;;;;;5030588;28;20108;-47
2021/04/29 07:13:33;;;;;;;38.42;29.30;;;9.70;99.90;;;;;;5030175;28;20025;-47
2021/04/29 07:15:59;;;;;;;37.35;27.23;;;9.80;99.90;;;;;;5030674;28;20056;-47
2021/04/29 07:18:24;;;;;;;35.22;27.25;;;9.70;99.90;;;;;;5029962;28;20042;-47
2021/04/29 07:20:54;;;;;;;35.97;27.52;;;9.80;99.90;;;;;;5029670;28;20052;-49
2021/04/29 07:23:19;;;;;;;34.72;27.25;;;9.80;99.90;;;;;;5030337;28;20017;-49
2021/04/29 07:25:46;;;;;;;37.60;26.80;;;9.80;99.90;;;;;;5028834;28;20032;-47
2021/04/29 07:28:11;;;;;;;35.22;25.55;;;9.80;99.90;;;;;;5026656;28;20483;-47
2021/04/29 07:30:39;;;;;;;36.83;27.17;;;9.80;99.90;;;;;;5027527;28;20045;-47
2021/04/29 07:33:05;;;;;;;34.13;28.00;;;9.90;99.90;;;;;;5028431;28;20664;-49
2021/04/29 07:35:31;;;;;;;35.80;27.83;;;9.90;99.90;;;;;;5028644;28;20065;-47
2021/04/29 07:37:57;;;;;;;36.67;28.02;;;9.90;99.90;;;;;;5029513;28;20076;-46
2021/04/29 07:40:25;;;;;;;36.47;27.20;;;9.90;99.90;;;;;;5024501;28;20510;-48
2021/04/29 07:42:51;;;;;;;38.35;27.30;;;10.00;99.90;;;;;;5027168;28;20025;-47
2021/04/29 07:45:16;;;;;;;40.03;27.80;;;9.90;99.90;;;;;;5026029;28;20024;-47
2021/04/29 07:47:45;;;;;;;35.45;26.33;;;10.00;99.90;;;;;;5027308;28;20033;-48
2021/04/29 07:50:11;;;;;;;33.45;25.80;;;10.00;99.90;;;;;;5027921;28;20284;-47
2021/04/29 07:52:37;;;;;;;37.78;25.95;;;10.00;99.90;;;;;;5023893;28;20029;-46
2021/04/29 07:55:04;;;;;;;38.05;27.63;;;10.10;99.90;;;;;;5027545;28;20021;-47
2021/04/29 07:57:29;;;;;;;35.08;27.00;;;10.10;99.90;;;;;;5026097;28;20079;-46
2021/04/29 07:59:55;;;;;;;36.97;28.17;;;10.10;99.90;;;;;;5027871;28;20490;-47
2021/04/29 08:02:20;;;;;;;34.92;27.90;;;10.10;99.90;;;;;;5028370;28;20111;-48
2021/04/29 08:04:46;;;;;;;40.30;28.50;;;10.00;99.90;;;;;;5027447;28;20037;-49
2021/04/29 08:07:12;;;;;;;38.90;29.27;;;10.00;99.90;;;;;;5026904;28;21091;-47
2021/04/29 08:09:38;;;;;;;38.90;28.70;;;10.00;99.90;;;;;;5025123;28;20045;-49
2021/04/29 08:12:04;;;;;;;37.00;27.58;;;10.00;99.90;;;;;;5027896;28;20032;-48
2021/04/29 08:14:29;;;;;;;38.90;29.77;;;9.90;99.90;;;;;;5027149;28;20028;-48
2021/04/29 08:16:55;;;;;;;35.60;28.33;;;9.90;99.90;;;;;;5026775;28;20108;-48
2021/04/29 08:19:21;;;;;;;37.92;29.02;;;9.90;99.90;;;;;;5026671;28;20076;-47
2021/04/29 08:21:47;;;;;;;34.22;28.27;;;9.90;99.90;;;;;;5027682;28;20049;-46
2021/04/29 08:24:13;;;;;;;38.25;30.25;;;9.90;99.90;;;;;;5027979;28;20029;-48
2021/04/29 08:26:39;;;;;;;40.25;29.45;;;9.90;99.90;;;;;;5021444;28;20057;-48
2021/04/29 08:29:05;;;;;;;40.67;29.50;;;10.00;99.90;;;;;;5008877;28;20357;-49
2021/04/29 08:31:31;;;;;;;39.20;29.20;;;10.00;99.90;;;;;;5023616;28;20040;-47
2021/04/29 08:33:57;;;;;;;37.40;28.50;;;10.00;99.90;;;;;;5032817;28;20502;-46
2021/04/29 08:36:22;;;;;;;37.78;27.77;;;9.90;99.90;;;;;;5028685;28;20054;-48
2021/04/29 08:38:48;;;;;;;37.60;28.42;;;9.90;99.90;;;;;;5020619;28;20021;-47
2021/04/29 08:41:13;;;;;;;34.88;26.60;;;9.90;99.90;;;;;;5033248;28;20103;-51
2021/04/29 08:43:39;;;;;;;36.88;29.30;;;9.90;99.90;;;;;;5032500;28;20045;-48
2021/04/29 08:46:05;;;;;;;40.90;29.88;;;9.90;99.90;;;;;;5032314;28;20026;-48
2021/04/29 08:48:31;;;;;;;41.67;29.25;;;9.80;99.90;;;;;;5030406;28;20025;-47
2021/04/29 08:50:57;;;;;;;39.20;28.52;;;9.80;99.90;;;;;;5033801;28;20040;-48
2021/04/29 08:53:22;;;;;;;40.92;30.48;;;9.80;99.90;;;;;;5031754;28;20029;-49
2021/04/29 08:55:48;;;;;;;41.38;31.73;;;9.80;99.90;;;;;;5031820;28;20029;-50
2021/04/29 08:58:14;;;;;;;46.47;32.65;;;9.80;99.90;;;;;;5027437;28;20498;-49
2021/04/29 09:00:40;;;;;;;44.88;32.63;;;9.80;99.90;;;;;;5032583;28;20479;-48
2021/04/29 09:03:05;;;;;;;42.17;30.30;;;9.80;99.90;;;;;;5030183;28;20033;-48
2021/04/29 09:05:34;;;;;;;39.33;29.50;;;9.80;99.90;;;;;;5031599;28;20091;-47
2021/04/29 09:08:08;;;;;;;41.13;29.55;;;9.80;99.90;;;;;;5030669;28;20025;-49
2021/04/29 09:10:40;;;;;;;41.03;30.08;;;9.80;99.90;;;;;;5030060;28;20490;-47
2021/04/29 09:13:18;;;;;;;43.67;31.10;;;9.80;99.90;;;;;;5031409;28;20020;-46
2021/04/29 09:15:45;;;;;;;42.25;30.70;;;9.80;99.90;;;;;;5031706;28;20036;-49
2021/04/29 09:18:14;;;;;;;40.67;28.90;;;9.80;99.90;;;;;;5030363;28;20064;-48
2021/04/29 09:20:54;;;;;;;33.83;26.27;;;9.80;99.90;;;;;;5031554;28;20108;-49
2021/04/29 09:23:25;;;;;;;36.95;28.13;;;9.70;99.90;;;;;;5031692;28;20033;-46
2021/04/29 09:25:57;;;;;;;40.35;29.58;;;9.70;99.90;;;;;;5030573;28;20029;-47
2021/04/29 09:28:49;;;;;;;38.70;27.40;;;9.70;99.90;;;;;;5018621;28;20398;-47
2021/04/29 09:31:21;;;;;;;36.35;27.65;;;9.60;99.90;;;;;;5031311;28;20049;-49
2021/04/29 09:33:49;;;;;;;39.25;30.20;;;9.70;99.90;;;;;;5031393;28;20025;-50
2021/04/29 09:36:27;;;;;;;37.05;29.13;;;9.70;99.90;;;;;;5031264;28;20040;-49
2021/04/29 09:39:10;;;;;;;32.22;24.85;;;9.70;99.90;;;;;;5029903;28;20479;-47
2021/04/29 09:41:38;;;;;;;32.90;26.30;;;9.70;99.90;;;;;;5029483;28;20176;-47
2021/04/29 09:44:09;;;;;;;30.70;24.42;;;9.70;99.90;;;;;;5027138;28;20490;-47
2021/04/29 09:46:39;;;;;;;;;;;9.80;99.90;;;;;;5031111;28;20535;-48
2021/04/29 09:49:15;;;;;;;34.33;27.23;;;9.90;99.90;;;;;;5030373;28;19905;-48
2021/04/29 09:51:40;;;;;;;33.80;28.02;;;10.00;99.90;;;;;;5029972;28;20163;-48
2021/04/29 09:54:06;;;;;;;36.55;28.05;;;10.10;99.90;;;;;;5030327;28;20172;-50
2021/04/29 09:56:31;;;;;;;31.73;25.15;;;10.10;99.90;;;;;;5031027;28;20025;-48
2021/04/29 09:58:58;;;;;;;30.73;24.70;;;10.10;99.90;;;;;;5029635;28;20022;-47
2021/04/29 10:01:26;;;;;;;30.58;24.40;;;10.10;99.90;;;;;;5030831;28;20030;-48
2021/04/29 10:03:57;;;;;;;29.83;24.75;;;10.10;99.90;;;;;;5030699;28;20509;-47
2021/04/29 10:06:23;;;;;;;37.33;27.55;;;10.10;99.90;;;;;;5029800;28;20017;-50
2021/04/29 10:08:50;;;;;;;30.45;22.15;;;10.20;99.90;;;;;;5029018;28;20033;-47
2021/04/29 10:11:21;;;;;;;28.88;22.50;;;10.20;99.90;;;;;;5029425;28;20079;-47
2021/04/29 10:13:53;;;;;;;31.63;24.80;;;10.30;99.90;;;;;;5029877;28;20125;-47
2021/04/29 10:16:20;;;;;;;31.52;25.15;;;10.30;99.90;;;;;;5031269;28;20083;-48
2021/04/29 10:18:45;;;;;;;32.83;26.70;;;10.40;99.90;;;;;;5029817;28;20117;-47
2021/04/29 10:21:11;;;;;;;32.17;26.58;;;10.40;99.90;;;;;;5029690;28;20100;-49
2021/04/29 10:23:38;;;;;;;33.28;25.13;;;10.40;99.90;;;;;;5029135;28;20388;-49
2021/04/29 10:26:05;;;;;;;33.55;25.73;;;10.50;99.90;;;;;;5027644;28;20038;-48
2021/04/29 10:28:41;;;;;;;36.45;27.00;;;10.50;99.90;;;;;;5009867;28;20022;-49
2021/04/29 10:31:15;;;;;;;35.67;28.25;;;10.50;99.90;;;;;;5024317;28;20512;-48
2021/04/29 10:33:47;;;;;;;33.55;27.88;;;10.70;99.90;;;;;;5029396;28;20140;-49
2021/04/29 10:36:13;;;;;;;28.88;24.23;;;10.80;99.90;;;;;;5030596;28;20025;-50
2021/04/29 10:38:39;;;;;;;29.77;24.05;;;11.00;99.90;;;;;;5029753;28;20166;-49
2021/04/29 10:41:17;;;;;;;28.30;22.35;;;11.20;99.90;;;;;;5030348;28;20041;-49
2021/04/29 10:43:43;;;;;;;26.45;21.67;;;11.60;99.90;;;;;;5030190;28;20025;-48
2021/04/29 10:46:10;;;;;;;23.90;21.35;;;12.10;99.90;;;;;;5027678;28;20029;-47
2021/04/29 10:48:49;;;;;;;26.30;20.83;;;12.00;99.90;;;;;;5029210;28;20060;-47
2021/04/29 10:51:15;;;;;;;24.73;21.60;;;12.40;99.90;;;;;;5028232;28;20572;-48
2021/04/29 10:53:41;;;;;;;21.77;18.73;;;12.80;99.90;;;;;;5029709;28;20033;-48
2021/04/29 10:56:12;;;;;;;22.10;18.08;;;13.70;99.90;;;;;;5028614;28;20023;-49
2021/04/29 10:58:37;;;;;;;;;;;14.10;99.90;;;;;;5026751;28;20542;-51
2021/04/29 11:01:06;;;;;;;22.77;17.90;;;14.30;99.90;;;;;;5037027;28;20028;-49
2021/04/29 11:03:33;;;;;;;23.77;19.10;;;14.20;99.90;;;;;;5026680;28;20025;-48
2021/04/29 11:06:07;;;;;;;22.40;18.63;;;14.40;99.90;;;;;;5028698;28;20029;-48
2021/04/29 11:08:35;;;;;;;22.00;17.92;;;14.30;99.90;;;;;;5029316;28;20395;-48
2021/04/29 11:11:00;;;;;;;22.52;19.83;;;14.80;99.90;;;;;;5029435;28;20044;-47
2021/04/29 11:13:26;;;;;;;22.15;17.25;;;15.50;99.90;;;;;;5029503;28;20026;-47
2021/04/29 11:16:00;;;;;;;17.70;15.80;;;16.90;99.90;;;;;;5028565;28;20032;-48
2021/04/29 11:18:25;;;;;;;17.45;14.90;;;18.40;99.90;;;;;;5028879;28;20502;-49
2021/04/29 11:20:54;;;;;;;14.68;13.18;;;18.90;99.90;;;;;;5028471;28;20334;-48
2021/04/29 11:23:28;;;;;;;14.60;13.10;;;19.70;99.90;;;;;;5028758;28;20034;-50
2021/04/29 11:26:07;;;;;;;17.40;15.70;;;19.80;95.70;;;;;;5025713;28;20021;-48
2021/04/29 11:28:33;;;;;;;14.05;12.65;;;19.50;97.50;;;;;;5026903;28;20041;-50
2021/04/29 11:30:59;;;;;;;15.65;13.90;;;19.90;98.70;;;;;;5028436;28;20434;-50
2021/04/29 11:33:37;;;;;;;18.38;15.45;;;20.20;98.30;;;;;;5024026;28;20543;-50
2021/04/29 11:36:23;;;;;;;13.50;12.10;;;20.00;99.10;;;;;;5026725;28;20030;-50
2021/04/29 11:38:51;;;;;;;13.57;12.25;;;20.50;98.00;;;;;;5024953;28;20045;-51
2021/04/29 11:41:17;;;;;;;13.80;12.50;;;21.30;98.00;;;;;;5027155;28;20119;-50
2021/04/29 11:43:43;;;;;;;14.10;12.60;;;21.20;95.70;;;;;;5028228;28;20111;-48
2021/04/29 11:46:20;;;;;;;15.88;14.25;;;20.90;92.50;;;;;;5023886;28;20224;-48
2021/04/29 11:49:04;;;;;;;14.52;12.82;;;21.20;95.00;;;;;;5016136;28;20144;-49
2021/04/29 11:51:33;;;;;;;14.30;11.30;;;21.40;90.00;;;;;;5025365;28;20029;-48
2021/04/29 11:54:08;;;;;;;15.32;13.82;;;21.20;86.60;;;;;;5026601;28;20180;-48
2021/04/29 11:56:42;;;;;;;17.15;15.45;;;21.20;86.50;;;;;;5027188;28;20021;-48
2021/04/29 11:59:09;;;;;;;14.40;13.00;;;20.90;83.50;;;;;;5026133;28;20336;-50
2021/04/29 12:01:36;;;;;;;18.23;16.30;;;20.90;91.10;;;;;;5026698;28;20032;-48
2021/04/29 12:04:16;;;;;;;16.25;14.00;;;20.80;91.30;;;;;;5025401;28;20107;-48
2021/04/29 12:06:52;;;;;;;;;;;20.10;90.70;;;;;;5027404;28;20329;-48
2021/04/29 12:09:20;;;;;;;20.35;17.58;;;19.60;92.30;;;;;;5027225;28;20185;-48
2021/04/29 12:11:45;;;;;;;18.23;16.38;;;18.70;96.00;;;;;;5027852;28;20049;-48
2021/04/29 12:14:13;;;;;;;19.73;17.35;;;18.60;95.20;;;;;;5027200;28;20018;-48
2021/04/29 12:16:40;;;;;;;22.48;18.55;;;18.40;97.30;;;;;;5026716;28;20103;-50
2021/04/29 12:19:06;;;;;;;19.42;17.30;;;18.70;97.00;;;;;;5026332;28;20032;-48
2021/04/29 12:21:33;;;;;;;23.50;19.73;;;18.80;96.30;;;;;;5027883;28;20017;-51
2021/04/29 12:24:00;;;;;;;22.02;19.70;;;18.70;96.00;;;;;;5027270;28;20010;-48
2021/04/29 12:26:40;;;;;;;22.00;18.42;;;18.60;95.00;;;;;;5025632;28;20028;-47
2021/04/29 12:29:10;;;;;;;21.20;18.95;;;18.20;99.90;;;;;;5024525;28;20017;-48
2021/04/29 12:31:37;;;;;;;24.35;20.30;;;18.20;97.60;;;;;;5026110;28;20042;-48
2021/04/29 12:34:06;;;;;;;24.98;21.20;;;17.80;98.10;;;;;;5027180;28;20092;-48
2021/04/29 12:36:36;;;;;;;24.92;22.33;;;17.40;97.40;;;;;;5027449;28;20124;-47